sensor_id;sensor_type;location;lat;lon;timestamp;pressure;altitude;pressure_sealevel;temperature;humidity
32492;BME280;20605;49.742;18.802;2023-05-22T00:02:07;97895.50;;;11.85;100.00
32492;BME280;20605;49.742;18.802;2023-05-22T00:04:32;97892.67;;;11.81;100.00
32492;BME280;20605;49.742;18.802;2023-05-22T00:06:58;97894.29;;;11.80;100.00
32492;BME280;20605;49.742;18.802;2023-05-22T00:09:23;97892.83;;;11.76;100.00
32492;BME280;20605;49.742;18.802;2023-05-22T00:11:49;97890.86;;;11.68;100.00
32492;BME280;20605;49.742;18.802;2023-05-22T00:14:15;97887.34;;;11.64;100.00
32492;BME280;20605;49.742;18.802;2023-05-22T00:16:40;97888.40;;;11.64;100.00
32492;BME280;20605;49.742;18.802;2023-05-22T00:19:06;97889.30;;;11.63;100.00
32492;BME280;20605;49.742;18.802;2023-05-22T00:21:40;97886.20;;;11.62;100.00
32492;BME280;20605;49.742;18.802;2023-05-22T00:24:05;97885.55;;;11.61;100.00
32492;BME280;20605;49.742;18.802;2023-05-22T00:26:31;97884.77;;;11.58;100.00
32492;BME280;20605;49.742;18.802;2023-05-22T00:28:56;97886.14;;;11.54;100.00
32492;BME280;20605;49.742;18.802;2023-05-22T00:31:22;97885.21;;;11.50;100.00
32492;BME280;20605;49.742;18.802;2023-05-22T00:33:47;97885.14;;;11.47;100.00
32492;BME280;20605;49.742;18.802;2023-05-22T00:36:13;97879.38;;;11.43;100.00
32492;BME280;20605;49.742;18.802;2023-05-22T00:38:38;97882.70;;;11.37;100.00
32492;BME280;20605;49.742;18.802;2023-05-22T00:41:04;97887.71;;;11.33;100.00
32492;BME280;20605;49.742;18.802;2023-05-22T00:43:30;97883.70;;;11.28;100.00
32492;BME280;20605;49.742;18.802;2023-05-22T00:45:56;97882.27;;;11.24;100.00
32492;BME280;20605;49.742;18.802;2023-05-22T00:48:22;97884.09;;;11.22;100.00
32492;BME280;20605;49.742;18.802;2023-05-22T00:50:48;97882.61;;;11.19;100.00
32492;BME280;20605;49.742;18.802;2023-05-22T00:53:14;97883.98;;;11.15;100.00
32492;BME280;20605;49.742;18.802;2023-05-22T00:55:40;97883.36;;;11.12;100.00
32492;BME280;20605;49.742;18.802;2023-05-22T00:58:05;97884.84;;;11.09;100.00
32492;BME280;20605;49.742;18.802;2023-05-22T01:00:36;97883.27;;;11.04;100.00
32492;BME280;20605;49.742;18.802;2023-05-22T01:03:04;97881.45;;;11.02;100.00
32492;BME280;20605;49.742;18.802;2023-05-22T01:05:32;97882.89;;;11.00;100.00
32492;BME280;20605;49.742;18.802;2023-05-22T01:07:58;97877.42;;;10.97;100.00
32492;BME280;20605;49.742;18.802;2023-05-22T01:10:25;97876.13;;;10.94;100.00
32492;BME280;20605;49.742;18.802;2023-05-22T01:18:14;97869.71;;;10.88;100.00
32492;BME280;20605;49.742;18.802;2023-05-22T01:20:48;97870.31;;;10.86;100.00
32492;BME280;20605;49.742;18.802;2023-05-22T01:28:33;97876.16;;;10.82;100.00
32492;BME280;20605;49.742;18.802;2023-05-22T01:33:29;97871.14;;;10.64;100.00
32492;BME280;20605;49.742;18.802;2023-05-22T01:35:56;97873.06;;;10.59;100.00
32492;BME280;20605;49.742;18.802;2023-05-22T01:38:24;97871.07;;;10.56;100.00
32492;BME280;20605;49.742;18.802;2023-05-22T01:40:50;97869.18;;;10.55;100.00
32492;BME280;20605;49.742;18.802;2023-05-22T01:43:16;97874.81;;;10.53;100.00
32492;BME280;20605;49.742;18.802;2023-05-22T01:45:43;97865.48;;;10.51;100.00
32492;BME280;20605;49.742;18.802;2023-05-22T01:48:09;97867.06;;;10.50;100.00
32492;BME280;20605;49.742;18.802;2023-05-22T01:50:38;97869.39;;;10.48;100.00
32492;BME280;20605;49.742;18.802;2023-05-22T01:53:06;97873.81;;;10.45;100.00
32492;BME280;20605;49.742;18.802;2023-05-22T01:55:39;97873.03;;;10.42;100.00
32492;BME280;20605;49.742;18.802;2023-05-22T02:00:36;97867.06;;;10.34;100.00
32492;BME280;20605;49.742;18.802;2023-05-22T02:03:06;97865.34;;;10.34;100.00
32492;BME280;20605;49.742;18.802;2023-05-22T02:05:33;97863.98;;;10.33;100.00
32492;BME280;20605;49.742;18.802;2023-05-22T02:08:02;97857.64;;;10.30;100.00
32492;BME280;20605;49.742;18.802;2023-05-22T02:10:28;97861.66;;;10.29;100.00
32492;BME280;20605;49.742;18.802;2023-05-22T02:12:53;97857.76;;;10.26;100.00
32492;BME280;20605;49.742;18.802;2023-05-22T02:15:19;97862.71;;;10.23;100.00
32492;BME280;20605;49.742;18.802;2023-05-22T02:17:46;97864.68;;;10.21;100.00
32492;BME280;20605;49.742;18.802;2023-05-22T02:20:14;97862.46;;;10.19;100.00
32492;BME280;20605;49.742;18.802;2023-05-22T02:22:42;97861.14;;;10.16;100.00
32492;BME280;20605;49.742;18.802;2023-05-22T02:25:09;97862.94;;;10.14;100.00
32492;BME280;20605;49.742;18.802;2023-05-22T02:27:42;97861.20;;;10.14;100.00
32492;BME280;20605;49.742;18.802;2023-05-22T02:30:07;97855.98;;;10.14;100.00
32492;BME280;20605;49.742;18.802;2023-05-22T02:32:33;97856.20;;;10.13;100.00
32492;BME280;20605;49.742;18.802;2023-05-22T02:34:59;97853.09;;;10.13;100.00
32492;BME280;20605;49.742;18.802;2023-05-22T02:37:24;97850.67;;;10.12;100.00
32492;BME280;20605;49.742;18.802;2023-05-22T02:39:50;97847.19;;;10.13;100.00
32492;BME280;20605;49.742;18.802;2023-05-22T02:42:15;97850.29;;;10.13;100.00
32492;BME280;20605;49.742;18.802;2023-05-22T02:44:42;97848.60;;;10.11;100.00
32492;BME280;20605;49.742;18.802;2023-05-22T02:47:07;97850.74;;;10.10;100.00
32492;BME280;20605;49.742;18.802;2023-05-22T02:49:33;97853.89;;;10.09;100.00
32492;BME280;20605;49.742;18.802;2023-05-22T02:51:58;97851.67;;;10.07;100.00
32492;BME280;20605;49.742;18.802;2023-05-22T02:54:24;97849.77;;;10.01;100.00
32492;BME280;20605;49.742;18.802;2023-05-22T02:56:50;97845.23;;;9.96;100.00
32492;BME280;20605;49.742;18.802;2023-05-22T02:59:15;97842.80;;;9.96;100.00
32492;BME280;20605;49.742;18.802;2023-05-22T03:01:41;97848.93;;;10.00;100.00
32492;BME280;20605;49.742;18.802;2023-05-22T03:04:06;97845.95;;;10.02;100.00
32492;BME280;20605;49.742;18.802;2023-05-22T03:06:33;97847.42;;;10.04;100.00
32492;BME280;20605;49.742;18.802;2023-05-22T03:08:59;97848.14;;;10.10;100.00
32492;BME280;20605;49.742;18.802;2023-05-22T03:11:25;97851.30;;;10.14;100.00
32492;BME280;20605;49.742;18.802;2023-05-22T03:13:51;97848.70;;;10.21;100.00
32492;BME280;20605;49.742;18.802;2023-05-22T03:16:16;97850.16;;;10.25;100.00
32492;BME280;20605;49.742;18.802;2023-05-22T03:18:43;97851.61;;;10.29;100.00
32492;BME280;20605;49.742;18.802;2023-05-22T03:21:09;97850.19;;;10.30;100.00
32492;BME280;20605;49.742;18.802;2023-05-22T03:23:34;97850.80;;;10.32;100.00
32492;BME280;20605;49.742;18.802;2023-05-22T03:26:00;97852.48;;;10.29;100.00
32492;BME280;20605;49.742;18.802;2023-05-22T03:28:27;97852.36;;;10.27;100.00
32492;BME280;20605;49.742;18.802;2023-05-22T03:30:52;97852.47;;;10.29;100.00
32492;BME280;20605;49.742;18.802;2023-05-22T03:33:24;97852.41;;;10.31;100.00
32492;BME280;20605;49.742;18.802;2023-05-22T03:35:49;97855.98;;;10.33;100.00
32492;BME280;20605;49.742;18.802;2023-05-22T03:38:15;97855.79;;;10.34;100.00
32492;BME280;20605;49.742;18.802;2023-05-22T03:40:40;97859.65;;;10.32;100.00
32492;BME280;20605;49.742;18.802;2023-05-22T03:43:06;97856.47;;;10.28;100.00
32492;BME280;20605;49.742;18.802;2023-05-22T03:45:32;97857.30;;;10.36;100.00
32492;BME280;20605;49.742;18.802;2023-05-22T03:47:58;97856.91;;;10.48;100.00
32492;BME280;20605;49.742;18.802;2023-05-22T03:50:23;97855.77;;;10.62;100.00
32492;BME280;20605;49.742;18.802;2023-05-22T03:52:49;97856.81;;;11.00;100.00
32492;BME280;20605;49.742;18.802;2023-05-22T03:55:14;97855.96;;;11.41;100.00
32492;BME280;20605;49.742;18.802;2023-05-22T03:57:40;97857.33;;;11.72;100.00
32492;BME280;20605;49.742;18.802;2023-05-22T04:00:06;97860.09;;;12.02;100.00
32492;BME280;20605;49.742;18.802;2023-05-22T04:02:40;97861.33;;;12.29;100.00
32492;BME280;20605;49.742;18.802;2023-05-22T04:05:09;97860.75;;;12.53;100.00
32492;BME280;20605;49.742;18.802;2023-05-22T04:07:34;97860.58;;;12.76;100.00
32492;BME280;20605;49.742;18.802;2023-05-22T04:10:01;97857.66;;;13.17;100.00
32492;BME280;20605;49.742;18.802;2023-05-22T04:12:27;97855.15;;;13.57;100.00
32492;BME280;20605;49.742;18.802;2023-05-22T04:14:52;97854.63;;;13.77;100.00
32492;BME280;20605;49.742;18.802;2023-05-22T04:17:18;97850.77;;;13.97;100.00
32492;BME280;20605;49.742;18.802;2023-05-22T04:19:43;97852.39;;;14.11;100.00
32492;BME280;20605;49.742;18.802;2023-05-22T04:22:09;97854.88;;;14.25;100.00
32492;BME280;20605;49.742;18.802;2023-05-22T04:24:35;97859.10;;;14.32;100.00
32492;BME280;20605;49.742;18.802;2023-05-22T04:27:04;97854.49;;;14.41;100.00
32492;BME280;20605;49.742;18.802;2023-05-22T04:29:30;97856.92;;;14.76;100.00
32492;BME280;20605;49.742;18.802;2023-05-22T04:31:55;97852.42;;;15.14;100.00
32492;BME280;20605;49.742;18.802;2023-05-22T04:34:21;97854.57;;;15.48;100.00
32492;BME280;20605;49.742;18.802;2023-05-22T04:36:47;97853.36;;;15.82;100.00
32492;BME280;20605;49.742;18.802;2023-05-22T04:39:13;97854.59;;;16.28;100.00
32492;BME280;20605;49.742;18.802;2023-05-22T04:41:39;97852.33;;;16.79;100.00
32492;BME280;20605;49.742;18.802;2023-05-22T04:44:07;97849.90;;;17.28;100.00
32492;BME280;20605;49.742;18.802;2023-05-22T04:46:33;97848.51;;;17.61;100.00
32492;BME280;20605;49.742;18.802;2023-05-22T04:49:00;97847.87;;;17.81;100.00
32492;BME280;20605;49.742;18.802;2023-05-22T04:51:26;97840.49;;;18.01;100.00
32492;BME280;20605;49.742;18.802;2023-05-22T04:53:53;97844.27;;;18.13;100.00
32492;BME280;20605;49.742;18.802;2023-05-22T04:56:20;97842.77;;;18.48;100.00
32492;BME280;20605;49.742;18.802;2023-05-22T04:58:46;97843.83;;;18.90;100.00
32492;BME280;20605;49.742;18.802;2023-05-22T05:01:14;97844.11;;;19.26;100.00
32492;BME280;20605;49.742;18.802;2023-05-22T05:03:41;97839.05;;;19.51;100.00
32492;BME280;20605;49.742;18.802;2023-05-22T05:06:07;97839.16;;;19.73;100.00
32492;BME280;20605;49.742;18.802;2023-05-22T05:08:33;97834.84;;;19.98;100.00
32492;BME280;20605;49.742;18.802;2023-05-22T05:10:58;97839.58;;;20.18;100.00
32492;BME280;20605;49.742;18.802;2023-05-22T05:13:24;97834.95;;;20.49;100.00
32492;BME280;20605;49.742;18.802;2023-05-22T05:15:50;97833.50;;;20.76;100.00
32492;BME280;20605;49.742;18.802;2023-05-22T05:18:16;97833.67;;;21.10;100.00
32492;BME280;20605;49.742;18.802;2023-05-22T05:20:41;97830.64;;;21.46;100.00
32492;BME280;20605;49.742;18.802;2023-05-22T05:23:07;97826.31;;;21.75;100.00
32492;BME280;20605;49.742;18.802;2023-05-22T05:25:34;97828.73;;;21.90;100.00
32492;BME280;20605;49.742;18.802;2023-05-22T05:28:07;97835.88;;;22.09;100.00
32492;BME280;20605;49.742;18.802;2023-05-22T05:30:38;97832.36;;;22.47;100.00
32492;BME280;20605;49.742;18.802;2023-05-22T05:33:12;97834.17;;;22.75;100.00
32492;BME280;20605;49.742;18.802;2023-05-22T05:36:02;97835.16;;;23.02;100.00
32492;BME280;20605;49.742;18.802;2023-05-22T05:38:28;97831.48;;;23.30;100.00
32492;BME280;20605;49.742;18.802;2023-05-22T05:40:54;97834.40;;;23.56;100.00
32492;BME280;20605;49.742;18.802;2023-05-22T05:43:20;97834.67;;;23.83;100.00
32492;BME280;20605;49.742;18.802;2023-05-22T05:45:51;97832.63;;;24.16;100.00
32492;BME280;20605;49.742;18.802;2023-05-22T05:48:17;97832.88;;;24.47;99.85
32492;BME280;20605;49.742;18.802;2023-05-22T05:50:44;97832.42;;;24.59;99.51
32492;BME280;20605;49.742;18.802;2023-05-22T05:53:10;97829.40;;;24.66;99.78
32492;BME280;20605;49.742;18.802;2023-05-22T05:55:36;97826.88;;;24.85;99.35
32492;BME280;20605;49.742;18.802;2023-05-22T05:58:02;97822.42;;;25.07;98.92
32492;BME280;20605;49.742;18.802;2023-05-22T06:00:43;97823.14;;;25.52;97.91
32492;BME280;20605;49.742;18.802;2023-05-22T06:03:09;97817.70;;;25.84;95.66
32492;BME280;20605;49.742;18.802;2023-05-22T06:05:47;97814.05;;;26.24;95.58
32492;BME280;20605;49.742;18.802;2023-05-22T06:08:22;97811.78;;;26.61;93.09
32492;BME280;20605;49.742;18.802;2023-05-22T06:10:47;97810.02;;;26.86;92.64
32492;BME280;20605;49.742;18.802;2023-05-22T06:13:31;97804.99;;;27.19;91.21
32492;BME280;20605;49.742;18.802;2023-05-22T06:15:56;97803.98;;;27.41;90.95
32492;BME280;20605;49.742;18.802;2023-05-22T06:18:22;97806.11;;;27.70;90.72
32492;BME280;20605;49.742;18.802;2023-05-22T06:20:50;97802.38;;;27.99;88.70
32492;BME280;20605;49.742;18.802;2023-05-22T06:23:16;97802.55;;;28.25;87.65
32492;BME280;20605;49.742;18.802;2023-05-22T06:25:42;97799.91;;;28.37;87.24
32492;BME280;20605;49.742;18.802;2023-05-22T06:28:07;97797.38;;;28.57;86.43
32492;BME280;20605;49.742;18.802;2023-05-22T06:30:33;97793.52;;;28.95;85.74
32492;BME280;20605;49.742;18.802;2023-05-22T06:32:59;97789.59;;;29.35;84.46
32492;BME280;20605;49.742;18.802;2023-05-22T06:35:25;97793.53;;;29.58;84.07
32492;BME280;20605;49.742;18.802;2023-05-22T06:37:50;97792.55;;;29.73;80.84
32492;BME280;20605;49.742;18.802;2023-05-22T06:40:17;97791.36;;;29.86;81.45
32492;BME280;20605;49.742;18.802;2023-05-22T06:42:48;97787.51;;;29.77;79.09
32492;BME280;20605;49.742;18.802;2023-05-22T06:45:19;97787.71;;;29.72;77.66
32492;BME280;20605;49.742;18.802;2023-05-22T06:48:10;97789.44;;;29.56;78.82
32492;BME280;20605;49.742;18.802;2023-05-22T06:50:39;97788.02;;;29.39;78.66
32492;BME280;20605;49.742;18.802;2023-05-22T06:53:05;97790.02;;;29.41;78.36
32492;BME280;20605;49.742;18.802;2023-05-22T06:55:31;97786.99;;;29.14;77.53
32492;BME280;20605;49.742;18.802;2023-05-22T06:58:02;97791.92;;;28.88;77.46
32492;BME280;20605;49.742;18.802;2023-05-22T07:00:29;97791.90;;;28.87;76.73
32492;BME280;20605;49.742;18.802;2023-05-22T07:03:10;97785.05;;;29.01;76.10
32492;BME280;20605;49.742;18.802;2023-05-22T07:05:42;97785.39;;;29.19;76.06
32492;BME280;20605;49.742;18.802;2023-05-22T07:08:08;97782.17;;;29.16;75.12
32492;BME280;20605;49.742;18.802;2023-05-22T07:10:34;97783.45;;;29.34;74.74
32492;BME280;20605;49.742;18.802;2023-05-22T07:13:00;97779.59;;;29.74;75.02
32492;BME280;20605;49.742;18.802;2023-05-22T07:15:27;97775.46;;;30.08;73.86
32492;BME280;20605;49.742;18.802;2023-05-22T07:17:54;97772.98;;;30.33;73.35
32492;BME280;20605;49.742;18.802;2023-05-22T07:20:21;97771.47;;;30.64;72.92
32492;BME280;20605;49.742;18.802;2023-05-22T07:22:57;97769.38;;;31.03;72.75
32492;BME280;20605;49.742;18.802;2023-05-22T07:25:23;97770.40;;;31.56;72.26
32492;BME280;20605;49.742;18.802;2023-05-22T07:27:49;97768.97;;;31.86;70.05
32492;BME280;20605;49.742;18.802;2023-05-22T07:30:17;97773.30;;;32.03;69.55
32492;BME280;20605;49.742;18.802;2023-05-22T07:32:44;97770.73;;;32.05;67.75
32492;BME280;20605;49.742;18.802;2023-05-22T07:35:10;97770.39;;;32.02;67.16
32492;BME280;20605;49.742;18.802;2023-05-22T07:37:36;97773.42;;;32.22;66.16
32492;BME280;20605;49.742;18.802;2023-05-22T07:40:03;97774.47;;;32.57;66.74
32492;BME280;20605;49.742;18.802;2023-05-22T07:42:29;97768.66;;;32.85;65.50
32492;BME280;20605;49.742;18.802;2023-05-22T07:44:55;97763.97;;;33.04;64.99
32492;BME280;20605;49.742;18.802;2023-05-22T07:47:24;97766.50;;;33.11;63.15
32492;BME280;20605;49.742;18.802;2023-05-22T07:49:50;97765.81;;;32.94;62.76
32492;BME280;20605;49.742;18.802;2023-05-22T07:52:16;97760.39;;;32.84;61.68
32492;BME280;20605;49.742;18.802;2023-05-22T07:54:42;97760.52;;;32.64;60.62
32492;BME280;20605;49.742;18.802;2023-05-22T07:57:08;97758.60;;;32.75;61.97
32492;BME280;20605;49.742;18.802;2023-05-22T07:59:36;97752.70;;;33.07;61.32
32492;BME280;20605;49.742;18.802;2023-05-22T08:02:02;97755.02;;;33.14;60.77
32492;BME280;20605;49.742;18.802;2023-05-22T08:04:31;97749.85;;;33.16;60.47
32492;BME280;20605;49.742;18.802;2023-05-22T08:06:57;97748.01;;;33.14;59.00
32492;BME280;20605;49.742;18.802;2023-05-22T08:09:22;97753.45;;;32.91;58.20
32492;BME280;20605;49.742;18.802;2023-05-22T08:11:48;97751.55;;;32.84;58.58
32492;BME280;20605;49.742;18.802;2023-05-22T08:14:13;97745.37;;;33.12;58.90
32492;BME280;20605;49.742;18.802;2023-05-22T08:16:39;97746.66;;;33.50;58.73
32492;BME280;20605;49.742;18.802;2023-05-22T08:19:04;97746.11;;;33.63;57.46
32492;BME280;20605;49.742;18.802;2023-05-22T08:21:31;97748.18;;;33.51;56.46
32492;BME280;20605;49.742;18.802;2023-05-22T08:24:01;97748.11;;;33.49;57.47
32492;BME280;20605;49.742;18.802;2023-05-22T08:26:27;97744.16;;;33.36;56.60
32492;BME280;20605;49.742;18.802;2023-05-22T08:28:54;97742.47;;;33.12;57.61
32492;BME280;20605;49.742;18.802;2023-05-22T08:31:20;97743.52;;;33.13;57.67
32492;BME280;20605;49.742;18.802;2023-05-22T08:33:45;97739.37;;;33.18;56.18
32492;BME280;20605;49.742;18.802;2023-05-22T08:36:11;97740.27;;;33.05;55.78
32492;BME280;20605;49.742;18.802;2023-05-22T08:38:37;97736.35;;;32.75;55.66
32492;BME280;20605;49.742;18.802;2023-05-22T08:41:02;97734.05;;;32.57;56.41
32492;BME280;20605;49.742;18.802;2023-05-22T08:43:29;97733.02;;;32.61;56.64
32492;BME280;20605;49.742;18.802;2023-05-22T08:45:55;97732.97;;;32.51;56.25
32492;BME280;20605;49.742;18.802;2023-05-22T08:48:24;97735.83;;;32.34;56.30
32492;BME280;20605;49.742;18.802;2023-05-22T08:50:53;97734.14;;;32.49;56.09
32492;BME280;20605;49.742;18.802;2023-05-22T08:53:22;97735.16;;;32.89;55.72
32492;BME280;20605;49.742;18.802;2023-05-22T08:55:48;97730.61;;;33.29;54.74
32492;BME280;20605;49.742;18.802;2023-05-22T08:58:15;97728.66;;;33.36;53.29
32492;BME280;20605;49.742;18.802;2023-05-22T09:00:42;97725.65;;;33.23;51.69
32492;BME280;20605;49.742;18.802;2023-05-22T09:03:08;97724.22;;;33.14;52.32
32492;BME280;20605;49.742;18.802;2023-05-22T09:05:38;97723.11;;;33.16;52.09
32492;BME280;20605;49.742;18.802;2023-05-22T09:08:05;97721.73;;;33.01;51.84
32492;BME280;20605;49.742;18.802;2023-05-22T09:10:32;97719.64;;;32.82;52.35
32492;BME280;20605;49.742;18.802;2023-05-22T09:13:07;97717.94;;;32.59;52.91
32492;BME280;20605;49.742;18.802;2023-05-22T09:15:34;97720.45;;;32.59;52.52
32492;BME280;20605;49.742;18.802;2023-05-22T09:18:01;97714.59;;;32.70;52.97
32492;BME280;20605;49.742;18.802;2023-05-22T09:20:27;97710.80;;;32.82;52.06
32492;BME280;20605;49.742;18.802;2023-05-22T09:22:52;97714.04;;;32.81;51.96
32492;BME280;20605;49.742;18.802;2023-05-22T09:25:19;97718.19;;;32.57;51.61
32492;BME280;20605;49.742;18.802;2023-05-22T09:27:45;97716.95;;;32.51;52.51
32492;BME280;20605;49.742;18.802;2023-05-22T09:30:11;97717.92;;;32.45;51.76
32492;BME280;20605;49.742;18.802;2023-05-22T09:32:40;97713.34;;;32.22;52.04
32492;BME280;20605;49.742;18.802;2023-05-22T09:35:05;97714.44;;;32.06;52.35
32492;BME280;20605;49.742;18.802;2023-05-22T09:37:34;97707.91;;;31.99;52.88
32492;BME280;20605;49.742;18.802;2023-05-22T09:40:03;97707.25;;;31.79;52.22
32492;BME280;20605;49.742;18.802;2023-05-22T09:42:31;97705.64;;;31.25;51.43
32492;BME280;20605;49.742;18.802;2023-05-22T09:44:56;97704.66;;;30.60;52.09
32492;BME280;20605;49.742;18.802;2023-05-22T09:47:26;97697.81;;;29.88;53.53
32492;BME280;20605;49.742;18.802;2023-05-22T09:49:52;97692.18;;;29.25;54.12
32492;BME280;20605;49.742;18.802;2023-05-22T09:52:20;97696.43;;;28.49;55.57
32492;BME280;20605;49.742;18.802;2023-05-22T09:54:51;97702.41;;;28.15;57.04
32492;BME280;20605;49.742;18.802;2023-05-22T09:57:19;97704.95;;;27.87;56.37
32492;BME280;20605;49.742;18.802;2023-05-22T09:59:47;97701.71;;;27.39;56.81
32492;BME280;20605;49.742;18.802;2023-05-22T10:02:14;97699.22;;;27.04;57.96
32492;BME280;20605;49.742;18.802;2023-05-22T10:04:39;97700.45;;;26.72;57.88
32492;BME280;20605;49.742;18.802;2023-05-22T10:07:05;97700.78;;;26.49;58.46
32492;BME280;20605;49.742;18.802;2023-05-22T10:09:32;97703.42;;;26.14;58.51
32492;BME280;20605;49.742;18.802;2023-05-22T10:12:04;97705.46;;;25.89;59.01
32492;BME280;20605;49.742;18.802;2023-05-22T10:14:30;97705.58;;;25.58;59.00
32492;BME280;20605;49.742;18.802;2023-05-22T10:16:56;97704.19;;;25.33;60.17
32492;BME280;20605;49.742;18.802;2023-05-22T10:19:26;97705.98;;;25.24;60.59
32492;BME280;20605;49.742;18.802;2023-05-22T10:21:53;97703.04;;;25.10;61.51
32492;BME280;20605;49.742;18.802;2023-05-22T10:24:21;97704.95;;;24.94;62.00
32492;BME280;20605;49.742;18.802;2023-05-22T10:26:48;97697.98;;;24.85;61.59
32492;BME280;20605;49.742;18.802;2023-05-22T10:29:15;97707.02;;;24.74;62.18
32492;BME280;20605;49.742;18.802;2023-05-22T10:31:52;97705.93;;;24.55;62.52
32492;BME280;20605;49.742;18.802;2023-05-22T10:34:29;97708.49;;;24.48;63.66
32492;BME280;20605;49.742;18.802;2023-05-22T10:39:39;97703.35;;;24.38;63.77
32492;BME280;20605;49.742;18.802;2023-05-22T10:42:11;97711.34;;;24.32;63.57
32492;BME280;20605;49.742;18.802;2023-05-22T10:44:36;97715.21;;;24.20;63.19
32492;BME280;20605;49.742;18.802;2023-05-22T10:47:08;97708.36;;;24.03;63.18
32492;BME280;20605;49.742;18.802;2023-05-22T10:49:35;97706.77;;;23.91;63.47
32492;BME280;20605;49.742;18.802;2023-05-22T10:52:04;97706.27;;;23.89;63.66
32492;BME280;20605;49.742;18.802;2023-05-22T10:54:41;97706.68;;;23.96;63.79
32492;BME280;20605;49.742;18.802;2023-05-22T10:57:14;97707.18;;;24.00;64.09
32492;BME280;20605;49.742;18.802;2023-05-22T10:59:43;97708.85;;;23.99;63.25
32492;BME280;20605;49.742;18.802;2023-05-22T11:02:21;97704.02;;;23.90;63.72
32492;BME280;20605;49.742;18.802;2023-05-22T11:04:49;97704.13;;;23.87;64.00
32492;BME280;20605;49.742;18.802;2023-05-22T11:07:14;97702.16;;;23.87;64.79
32492;BME280;20605;49.742;18.802;2023-05-22T11:09:41;97697.40;;;23.93;65.39
32492;BME280;20605;49.742;18.802;2023-05-22T11:14:52;97695.83;;;23.98;65.09
32492;BME280;20605;49.742;18.802;2023-05-22T11:19:58;97686.83;;;23.96;65.81
32492;BME280;20605;49.742;18.802;2023-05-22T11:22:34;97691.08;;;24.00;66.47
32492;BME280;20605;49.742;18.802;2023-05-22T11:25:10;97694.64;;;24.10;65.46
32492;BME280;20605;49.742;18.802;2023-05-22T11:27:36;97691.73;;;24.03;65.03
32492;BME280;20605;49.742;18.802;2023-05-22T11:30:03;97686.13;;;23.94;64.95
32492;BME280;20605;49.742;18.802;2023-05-22T11:32:29;97681.09;;;23.89;65.30
32492;BME280;20605;49.742;18.802;2023-05-22T11:34:55;97684.98;;;23.87;65.70
32492;BME280;20605;49.742;18.802;2023-05-22T11:37:21;97684.02;;;23.73;66.06
32492;BME280;20605;49.742;18.802;2023-05-22T11:39:56;97679.43;;;23.67;67.00
32492;BME280;20605;49.742;18.802;2023-05-22T11:42:22;97674.70;;;23.72;67.53
32492;BME280;20605;49.742;18.802;2023-05-22T11:44:47;97668.98;;;23.71;68.10
32492;BME280;20605;49.742;18.802;2023-05-22T11:47:13;97669.31;;;23.71;68.54
32492;BME280;20605;49.742;18.802;2023-05-22T11:49:39;97677.28;;;23.73;68.81
32492;BME280;20605;49.742;18.802;2023-05-22T11:52:05;97670.83;;;23.77;68.77
32492;BME280;20605;49.742;18.802;2023-05-22T11:54:31;97671.16;;;23.79;68.99
32492;BME280;20605;49.742;18.802;2023-05-22T11:56:56;97670.42;;;23.81;68.76
32492;BME280;20605;49.742;18.802;2023-05-22T11:59:22;97669.72;;;23.81;68.71
32492;BME280;20605;49.742;18.802;2023-05-22T12:01:48;97670.23;;;23.87;69.05
32492;BME280;20605;49.742;18.802;2023-05-22T12:04:14;97668.94;;;23.96;68.99
32492;BME280;20605;49.742;18.802;2023-05-22T12:06:40;97668.48;;;23.99;68.89
32492;BME280;20605;49.742;18.802;2023-05-22T12:09:06;97665.42;;;24.03;68.09
32492;BME280;20605;49.742;18.802;2023-05-22T12:11:34;97664.98;;;24.00;67.87
32492;BME280;20605;49.742;18.802;2023-05-22T12:14:01;97659.58;;;24.03;68.22
32492;BME280;20605;49.742;18.802;2023-05-22T12:16:26;97666.73;;;24.02;68.73
32492;BME280;20605;49.742;18.802;2023-05-22T12:18:52;97664.66;;;24.16;68.50
32492;BME280;20605;49.742;18.802;2023-05-22T12:21:18;97666.27;;;24.20;67.57
32492;BME280;20605;49.742;18.802;2023-05-22T12:23:48;97670.13;;;24.20;67.01
32492;BME280;20605;49.742;18.802;2023-05-22T12:26:14;97669.58;;;24.13;66.78
32492;BME280;20605;49.742;18.802;2023-05-22T12:28:40;97673.52;;;24.04;66.93
32492;BME280;20605;49.742;18.802;2023-05-22T12:31:05;97665.38;;;23.94;67.47
32492;BME280;20605;49.742;18.802;2023-05-22T12:33:31;97663.58;;;23.90;67.63
32492;BME280;20605;49.742;18.802;2023-05-22T12:35:56;97663.02;;;23.85;67.68
32492;BME280;20605;49.742;18.802;2023-05-22T12:38:26;97666.16;;;23.75;67.38
32492;BME280;20605;49.742;18.802;2023-05-22T12:40:52;97665.50;;;23.68;67.74
32492;BME280;20605;49.742;18.802;2023-05-22T12:43:18;97666.64;;;23.65;67.33
32492;BME280;20605;49.742;18.802;2023-05-22T12:45:43;97663.11;;;23.61;67.58
32492;BME280;20605;49.742;18.802;2023-05-22T12:48:09;97658.61;;;23.62;68.12
32492;BME280;20605;49.742;18.802;2023-05-22T12:50:34;97657.50;;;23.71;68.44
32492;BME280;20605;49.742;18.802;2023-05-22T12:53:00;97653.54;;;23.75;68.18
32492;BME280;20605;49.742;18.802;2023-05-22T12:55:25;97655.54;;;23.77;68.43
32492;BME280;20605;49.742;18.802;2023-05-22T12:57:51;97656.27;;;23.74;68.74
32492;BME280;20605;49.742;18.802;2023-05-22T13:00:17;97659.79;;;23.75;69.47
32492;BME280;20605;49.742;18.802;2023-05-22T13:02:42;97654.67;;;23.79;68.55
32492;BME280;20605;49.742;18.802;2023-05-22T13:05:08;97648.70;;;23.76;68.36
32492;BME280;20605;49.742;18.802;2023-05-22T13:07:33;97653.73;;;23.75;68.10
32492;BME280;20605;49.742;18.802;2023-05-22T13:09:59;97653.31;;;23.72;67.99